Panther Burn, Mississippi
Current Conditions -  °F | °C
As of 6:53 PM on Saturday 25 Oct 2014 (Local Time) from KGLH Reporting Station
Clear Clear  
Wind Chill: 72°   Ceiling: Unl
Heat Index: 72°   Visibility: 10mi
Dew Point: 63°   Wind: 5mph
Humidity: 73%   Direction: 220°SW
Pressure: 30.04"   Gusts: NA
Location:  33.07°N, 90.87°W
Report Text: KGLH 252353Z AUTO 22004KT 10SM CLR 22/17 A3004 RMK AO2 SLP180 T02220172 10278 20222 55002
Loading
Personal Weather Stations






























Interactive Weather Map
Tropical Storm Tracking
New forecast layout! Learn more

10-Day Weather Forecast

Advertisements
Track Severe Weather on mobile